sensor_id;sensor_type;location;lat;lon;timestamp;pressure;altitude;pressure_sealevel;temperature
11926;BMP180;6022;48.768;18.608;2022-10-31T00:01:37;98991.63;;;10.57
11926;BMP180;6022;48.768;18.608;2022-10-31T00:04:05;98998.06;;;10.62
11926;BMP180;6022;48.768;18.608;2022-10-31T00:06:32;98998.66;;;10.67
11926;BMP180;6022;48.768;18.608;2022-10-31T00:09:03;98996.13;;;10.67
11926;BMP180;6022;48.768;18.608;2022-10-31T00:11:31;98991.78;;;10.69
11926;BMP180;6022;48.768;18.608;2022-10-31T00:13:58;98996.94;;;10.68
11926;BMP180;6022;48.768;18.608;2022-10-31T00:16:27;98994.25;;;10.71
11926;BMP180;6022;48.768;18.608;2022-10-31T00:18:58;98988.84;;;10.61
11926;BMP180;6022;48.768;18.608;2022-10-31T00:21:26;98998.41;;;10.56
11926;BMP180;6022;48.768;18.608;2022-10-31T00:23:54;98999.50;;;10.53
11926;BMP180;6022;48.768;18.608;2022-10-31T00:26:21;98997.03;;;10.51
11926;BMP180;6022;48.768;18.608;2022-10-31T00:28:48;98998.81;;;10.49
11926;BMP180;6022;48.768;18.608;2022-10-31T00:31:15;98988.03;;;10.30
11926;BMP180;6022;48.768;18.608;2022-10-31T00:33:43;98985.09;;;10.22
11926;BMP180;6022;48.768;18.608;2022-10-31T00:36:17;98991.88;;;10.22
11926;BMP180;6022;48.768;18.608;2022-10-31T00:38:45;98982.56;;;10.22
11926;BMP180;6022;48.768;18.608;2022-10-31T00:41:15;98986.47;;;10.28
11926;BMP180;6022;48.768;18.608;2022-10-31T00:43:43;98990.50;;;10.32
11926;BMP180;6022;48.768;18.608;2022-10-31T00:46:12;98986.47;;;10.28
11926;BMP180;6022;48.768;18.608;2022-10-31T00:48:39;98982.31;;;10.27
11926;BMP180;6022;48.768;18.608;2022-10-31T00:51:07;98988.84;;;10.31
11926;BMP180;6022;48.768;18.608;2022-10-31T00:53:34;98987.78;;;10.35
11926;BMP180;6022;48.768;18.608;2022-10-31T00:56:01;98989.56;;;10.33
11926;BMP180;6022;48.768;18.608;2022-10-31T00:58:29;98991.03;;;10.37
11926;BMP180;6022;48.768;18.608;2022-10-31T01:00:56;98991.78;;;10.23
11926;BMP180;6022;48.768;18.608;2022-10-31T01:03:30;98992.44;;;10.27
11926;BMP180;6022;48.768;18.608;2022-10-31T01:06:08;98991.72;;;10.25
11926;BMP180;6022;48.768;18.608;2022-10-31T01:08:37;98989.34;;;10.22
11926;BMP180;6022;48.768;18.608;2022-10-31T01:11:15;98993.44;;;10.24
11926;BMP180;6022;48.768;18.608;2022-10-31T01:13:43;98988.69;;;10.18
11926;BMP180;6022;48.768;18.608;2022-10-31T01:16:17;98988.84;;;10.16
11926;BMP180;6022;48.768;18.608;2022-10-31T01:18:45;98992.19;;;10.16
11926;BMP180;6022;48.768;18.608;2022-10-31T01:21:25;98985.50;;;10.15
11926;BMP180;6022;48.768;18.608;2022-10-31T01:23:54;98985.75;;;10.11
11926;BMP180;6022;48.768;18.608;2022-10-31T01:26:33;98994.03;;;9.97
11926;BMP180;6022;48.768;18.608;2022-10-31T01:29:04;98989.22;;;9.93
11926;BMP180;6022;48.768;18.608;2022-10-31T01:31:38;98983.03;;;9.98
11926;BMP180;6022;48.768;18.608;2022-10-31T01:34:06;98984.09;;;9.94
11926;BMP180;6022;48.768;18.608;2022-10-31T01:36:37;98983.91;;;9.97
11926;BMP180;6022;48.768;18.608;2022-10-31T01:39:15;98978.69;;;10.00
11926;BMP180;6022;48.768;18.608;2022-10-31T01:41:46;98979.91;;;9.93
11926;BMP180;6022;48.768;18.608;2022-10-31T01:46:55;98979.00;;;9.94
11926;BMP180;6022;48.768;18.608;2022-10-31T01:49:43;98979.09;;;9.93
11926;BMP180;6022;48.768;18.608;2022-10-31T01:52:35;98975.75;;;9.92
11926;BMP180;6022;48.768;18.608;2022-10-31T01:55:15;98973.94;;;9.94
11926;BMP180;6022;48.768;18.608;2022-10-31T01:57:46;98968.50;;;9.85
11926;BMP180;6022;48.768;18.608;2022-10-31T02:00:15;98967.84;;;9.81
11926;BMP180;6022;48.768;18.608;2022-10-31T02:02:46;98972.66;;;9.86
11926;BMP180;6022;48.768;18.608;2022-10-31T02:05:20;98971.50;;;9.76
11926;BMP180;6022;48.768;18.608;2022-10-31T02:08:30;98968.97;;;9.76
11926;BMP180;6022;48.768;18.608;2022-10-31T02:11:00;98967.25;;;9.77
11926;BMP180;6022;48.768;18.608;2022-10-31T02:13:29;98966.75;;;9.70
11926;BMP180;6022;48.768;18.608;2022-10-31T02:15:58;98966.81;;;9.69
11926;BMP180;6022;48.768;18.608;2022-10-31T02:18:30;98963.56;;;9.67
11926;BMP180;6022;48.768;18.608;2022-10-31T02:21:47;98967.00;;;9.66
11926;BMP180;6022;48.768;18.608;2022-10-31T02:24:26;98964.53;;;9.64
11926;BMP180;6022;48.768;18.608;2022-10-31T02:27:16;98963.13;;;9.59
11926;BMP180;6022;48.768;18.608;2022-10-31T02:32:50;98969.00;;;9.59
11926;BMP180;6022;48.768;18.608;2022-10-31T02:47:13;98974.06;;;9.59
11926;BMP180;6022;48.768;18.608;2022-10-31T02:52:36;98974.31;;;9.55
11926;BMP180;6022;48.768;18.608;2022-10-31T02:58:12;98981.59;;;9.61
11926;BMP180;6022;48.768;18.608;2022-10-31T03:07:35;98978.94;;;9.47
11926;BMP180;6022;48.768;18.608;2022-10-31T03:13:24;98980.47;;;9.17
11926;BMP180;6022;48.768;18.608;2022-10-31T03:17:18;98986.09;;;9.22
11926;BMP180;6022;48.768;18.608;2022-10-31T03:19:33;98981.88;;;9.23
11926;BMP180;6022;48.768;18.608;2022-10-31T03:22:25;98985.44;;;9.19
11926;BMP180;6022;48.768;18.608;2022-10-31T03:24:55;98995.66;;;9.17
11926;BMP180;6022;48.768;18.608;2022-10-31T03:27:26;98987.16;;;9.18
11926;BMP180;6022;48.768;18.608;2022-10-31T03:30:02;98985.44;;;9.19
11926;BMP180;6022;48.768;18.608;2022-10-31T03:32:41;98982.84;;;9.20
11926;BMP180;6022;48.768;18.608;2022-10-31T03:35:15;98980.31;;;9.20
11926;BMP180;6022;48.768;18.608;2022-10-31T03:37:46;98981.22;;;9.19
11926;BMP180;6022;48.768;18.608;2022-10-31T03:40:19;98984.31;;;9.24
11926;BMP180;6022;48.768;18.608;2022-10-31T03:42:55;98980.16;;;9.23
11926;BMP180;6022;48.768;18.608;2022-10-31T03:45:28;98983.38;;;9.27
11926;BMP180;6022;48.768;18.608;2022-10-31T03:47:58;98982.25;;;9.15
11926;BMP180;6022;48.768;18.608;2022-10-31T03:50:40;98983.31;;;9.11
11926;BMP180;6022;48.768;18.608;2022-10-31T03:53:19;98988.06;;;9.17
11926;BMP180;6022;48.768;18.608;2022-10-31T03:56:09;98988.50;;;9.08
11926;BMP180;6022;48.768;18.608;2022-10-31T03:58:50;98990.13;;;9.09
11926;BMP180;6022;48.768;18.608;2022-10-31T04:01:23;98987.91;;;9.03
11926;BMP180;6022;48.768;18.608;2022-10-31T04:03:52;98984.91;;;8.96
11926;BMP180;6022;48.768;18.608;2022-10-31T04:06:22;98988.72;;;8.87
11926;BMP180;6022;48.768;18.608;2022-10-31T04:09:02;98990.41;;;8.87
11926;BMP180;6022;48.768;18.608;2022-10-31T04:11:36;98987.75;;;8.90
11926;BMP180;6022;48.768;18.608;2022-10-31T04:14:06;98990.97;;;8.93
11926;BMP180;6022;48.768;18.608;2022-10-31T04:16:34;98999.03;;;8.83
11926;BMP180;6022;48.768;18.608;2022-10-31T04:19:01;98995.41;;;8.53
11926;BMP180;6022;48.768;18.608;2022-10-31T04:21:30;98984.19;;;8.59
11926;BMP180;6022;48.768;18.608;2022-10-31T04:23:57;98984.69;;;8.48
11926;BMP180;6022;48.768;18.608;2022-10-31T04:26:25;98988.84;;;8.49
11926;BMP180;6022;48.768;18.608;2022-10-31T04:28:52;98987.97;;;8.50
11926;BMP180;6022;48.768;18.608;2022-10-31T04:31:19;98991.84;;;8.57
11926;BMP180;6022;48.768;18.608;2022-10-31T04:33:46;98986.78;;;8.57
11926;BMP180;6022;48.768;18.608;2022-10-31T04:36:14;98988.72;;;8.52
11926;BMP180;6022;48.768;18.608;2022-10-31T04:38:41;98991.09;;;8.55
11926;BMP180;6022;48.768;18.608;2022-10-31T04:41:08;98994.91;;;8.64
11926;BMP180;6022;48.768;18.608;2022-10-31T04:43:35;98990.53;;;8.67
11926;BMP180;6022;48.768;18.608;2022-10-31T04:46:04;98992.03;;;8.71
11926;BMP180;6022;48.768;18.608;2022-10-31T04:48:31;98991.81;;;8.75
11926;BMP180;6022;48.768;18.608;2022-10-31T04:51:02;98992.84;;;8.71
11926;BMP180;6022;48.768;18.608;2022-10-31T04:53:30;98990.53;;;8.67
11926;BMP180;6022;48.768;18.608;2022-10-31T04:56:00;98990.69;;;8.64
11926;BMP180;6022;48.768;18.608;2022-10-31T04:58:27;98985.63;;;8.64
11926;BMP180;6022;48.768;18.608;2022-10-31T05:00:56;98995.59;;;8.67
11926;BMP180;6022;48.768;18.608;2022-10-31T05:03:23;98990.53;;;8.67
11926;BMP180;6022;48.768;18.608;2022-10-31T05:05:50;98999.16;;;8.63
11926;BMP180;6022;48.768;18.608;2022-10-31T05:08:18;98991.72;;;8.60
11926;BMP180;6022;48.768;18.608;2022-10-31T05:10:45;98993.28;;;8.63
11926;BMP180;6022;48.768;18.608;2022-10-31T05:13:13;98990.84;;;8.61
11926;BMP180;6022;48.768;18.608;2022-10-31T05:15:42;98995.72;;;8.64
11926;BMP180;6022;48.768;18.608;2022-10-31T05:18:09;98992.41;;;8.64
11926;BMP180;6022;48.768;18.608;2022-10-31T05:20:36;98986.44;;;8.65
11926;BMP180;6022;48.768;18.608;2022-10-31T05:23:03;98988.31;;;8.61
11926;BMP180;6022;48.768;18.608;2022-10-31T05:25:30;98990.16;;;8.58
11926;BMP180;6022;48.768;18.608;2022-10-31T05:27:58;98989.59;;;8.51
11926;BMP180;6022;48.768;18.608;2022-10-31T05:30:31;98994.66;;;8.51
11926;BMP180;6022;48.768;18.608;2022-10-31T05:32:59;98991.38;;;8.49
11926;BMP180;6022;48.768;18.608;2022-10-31T05:35:31;98992.88;;;8.53
11926;BMP180;6022;48.768;18.608;2022-10-31T05:37:59;99001.22;;;8.55
11926;BMP180;6022;48.768;18.608;2022-10-31T05:40:28;99002.94;;;8.55
11926;BMP180;6022;48.768;18.608;2022-10-31T05:42:56;99003.59;;;8.58
11926;BMP180;6022;48.768;18.608;2022-10-31T05:45:25;99006.50;;;8.51
11926;BMP180;6022;48.768;18.608;2022-10-31T05:47:58;99010.06;;;8.47
11926;BMP180;6022;48.768;18.608;2022-10-31T05:50:30;99008.28;;;8.49
11926;BMP180;6022;48.768;18.608;2022-10-31T05:53:04;99004.25;;;8.45
11926;BMP180;6022;48.768;18.608;2022-10-31T05:55:32;99004.94;;;8.48
11926;BMP180;6022;48.768;18.608;2022-10-31T05:58:00;99011.75;;;8.46
11926;BMP180;6022;48.768;18.608;2022-10-31T06:00:29;99012.41;;;8.33
11926;BMP180;6022;48.768;18.608;2022-10-31T06:03:06;99029.25;;;8.32
11926;BMP180;6022;48.768;18.608;2022-10-31T06:05:35;99027.06;;;8.43
11926;BMP180;6022;48.768;18.608;2022-10-31T06:08:02;99027.13;;;8.42
11926;BMP180;6022;48.768;18.608;2022-10-31T06:10:30;99029.38;;;8.48
11926;BMP180;6022;48.768;18.608;2022-10-31T06:12:58;99025.16;;;8.48
11926;BMP180;6022;48.768;18.608;2022-10-31T06:15:25;99030.34;;;8.45
11926;BMP180;6022;48.768;18.608;2022-10-31T06:18:04;99033.50;;;8.50
11926;BMP180;6022;48.768;18.608;2022-10-31T06:20:33;99040.91;;;8.53
11926;BMP180;6022;48.768;18.608;2022-10-31T06:23:01;99035.66;;;8.58
11926;BMP180;6022;48.768;18.608;2022-10-31T06:25:29;99043.03;;;8.62
11926;BMP180;6022;48.768;18.608;2022-10-31T06:27:56;99047.06;;;8.66
11926;BMP180;6022;48.768;18.608;2022-10-31T06:30:24;99049.47;;;8.69
11926;BMP180;6022;48.768;18.608;2022-10-31T06:32:52;99053.56;;;8.71
11926;BMP180;6022;48.768;18.608;2022-10-31T06:35:20;99059.00;;;8.81
11926;BMP180;6022;48.768;18.608;2022-10-31T06:37:53;99048.47;;;8.90
11926;BMP180;6022;48.768;18.608;2022-10-31T06:40:21;99058.59;;;8.90
11926;BMP180;6022;48.768;18.608;2022-10-31T06:43:00;99061.72;;;8.95
11926;BMP180;6022;48.768;18.608;2022-10-31T06:45:27;99064.84;;;9.00
11926;BMP180;6022;48.768;18.608;2022-10-31T06:47:56;99063.22;;;8.99
11926;BMP180;6022;48.768;18.608;2022-10-31T06:50:43;99067.38;;;9.00
11926;BMP180;6022;48.768;18.608;2022-10-31T06:53:11;99069.09;;;8.99
11926;BMP180;6022;48.768;18.608;2022-10-31T06:55:38;99071.63;;;8.99
11926;BMP180;6022;48.768;18.608;2022-10-31T06:58:06;99067.38;;;9.00
11926;BMP180;6022;48.768;18.608;2022-10-31T07:00:34;99069.63;;;9.05
11926;BMP180;6022;48.768;18.608;2022-10-31T07:03:05;99070.00;;;9.15
11926;BMP180;6022;48.768;18.608;2022-10-31T07:05:32;99071.66;;;9.16
11926;BMP180;6022;48.768;18.608;2022-10-31T07:08:06;99077.41;;;9.19
11926;BMP180;6022;48.768;18.608;2022-10-31T07:10:36;99079.03;;;9.20
11926;BMP180;6022;48.768;18.608;2022-10-31T07:13:14;99085.06;;;9.18
11926;BMP180;6022;48.768;18.608;2022-10-31T07:15:43;99081.72;;;9.17
11926;BMP180;6022;48.768;18.608;2022-10-31T07:18:12;99085.56;;;9.24
11926;BMP180;6022;48.768;18.608;2022-10-31T07:20:39;99085.16;;;9.33
11926;BMP180;6022;48.768;18.608;2022-10-31T07:23:11;99085.88;;;9.35
11926;BMP180;6022;48.768;18.608;2022-10-31T07:25:39;99094.69;;;9.45
11926;BMP180;6022;48.768;18.608;2022-10-31T07:28:08;99089.03;;;9.57
11926;BMP180;6022;48.768;18.608;2022-10-31T07:30:35;99092.88;;;9.64
11926;BMP180;6022;48.768;18.608;2022-10-31T07:33:03;99090.47;;;9.62
11926;BMP180;6022;48.768;18.608;2022-10-31T07:35:32;99090.34;;;9.64
11926;BMP180;6022;48.768;18.608;2022-10-31T07:38:08;99091.78;;;9.69
11926;BMP180;6022;48.768;18.608;2022-10-31T07:40:36;99092.63;;;9.70
11926;BMP180;6022;48.768;18.608;2022-10-31T07:43:04;99095.41;;;9.64
11926;BMP180;6022;48.768;18.608;2022-10-31T07:45:38;99094.47;;;9.66
11926;BMP180;6022;48.768;18.608;2022-10-31T07:48:06;99095.88;;;9.72
11926;BMP180;6022;48.768;18.608;2022-10-31T07:50:34;99092.50;;;9.71
11926;BMP180;6022;48.768;18.608;2022-10-31T07:53:11;99091.69;;;9.71
11926;BMP180;6022;48.768;18.608;2022-10-31T07:55:39;99092.81;;;9.82
11926;BMP180;6022;48.768;18.608;2022-10-31T07:58:13;99089.63;;;9.95
11926;BMP180;6022;48.768;18.608;2022-10-31T08:00:44;99079.03;;;10.04
11926;BMP180;6022;48.768;18.608;2022-10-31T08:03:17;99085.56;;;10.08
11926;BMP180;6022;48.768;18.608;2022-10-31T08:05:45;99083.03;;;10.08
11926;BMP180;6022;48.768;18.608;2022-10-31T08:08:14;99088.72;;;9.96
11926;BMP180;6022;48.768;18.608;2022-10-31T08:10:41;99085.59;;;9.91
11926;BMP180;6022;48.768;18.608;2022-10-31T08:13:13;99086.34;;;9.93
11926;BMP180;6022;48.768;18.608;2022-10-31T08:15:41;99091.09;;;9.99
11926;BMP180;6022;48.768;18.608;2022-10-31T08:18:15;99090.88;;;10.04
11926;BMP180;6022;48.768;18.608;2022-10-31T08:20:43;99087.97;;;10.11
11926;BMP180;6022;48.768;18.608;2022-10-31T08:23:12;99082.44;;;10.20
11926;BMP180;6022;48.768;18.608;2022-10-31T08:25:40;99083.91;;;10.24
11926;BMP180;6022;48.768;18.608;2022-10-31T08:28:10;99082.09;;;10.26
11926;BMP180;6022;48.768;18.608;2022-10-31T08:30:38;99081.25;;;10.25
11926;BMP180;6022;48.768;18.608;2022-10-31T08:33:14;99085.69;;;10.22
11926;BMP180;6022;48.768;18.608;2022-10-31T08:35:41;99075.84;;;10.16
11926;BMP180;6022;48.768;18.608;2022-10-31T08:38:11;99077.19;;;10.23
11926;BMP180;6022;48.768;18.608;2022-10-31T08:40:39;99076.38;;;10.22
11926;BMP180;6022;48.768;18.608;2022-10-31T08:43:14;99073.59;;;10.27
11926;BMP180;6022;48.768;18.608;2022-10-31T08:45:43;99069.84;;;10.34
11926;BMP180;6022;48.768;18.608;2022-10-31T08:48:13;99071.31;;;10.38
11926;BMP180;6022;48.768;18.608;2022-10-31T08:50:43;99067.38;;;10.48
11926;BMP180;6022;48.768;18.608;2022-10-31T08:53:16;99068.97;;;10.50
11926;BMP180;6022;48.768;18.608;2022-10-31T08:55:45;99062.72;;;10.55
11926;BMP180;6022;48.768;18.608;2022-10-31T08:58:16;99063.81;;;10.67
11926;BMP180;6022;48.768;18.608;2022-10-31T09:00:46;99066.84;;;10.73
11926;BMP180;6022;48.768;18.608;2022-10-31T09:03:17;99069.53;;;10.86
11926;BMP180;6022;48.768;18.608;2022-10-31T09:05:45;99062.75;;;10.86
11926;BMP180;6022;48.768;18.608;2022-10-31T09:08:13;99062.16;;;10.81
11926;BMP180;6022;48.768;18.608;2022-10-31T09:10:43;99070.16;;;10.89
11926;BMP180;6022;48.768;18.608;2022-10-31T09:13:17;99062.25;;;10.95
11926;BMP180;6022;48.768;18.608;2022-10-31T09:15:48;99068.38;;;10.91
11926;BMP180;6022;48.768;18.608;2022-10-31T09:18:20;99061.66;;;10.90
11926;BMP180;6022;48.768;18.608;2022-10-31T09:20:50;99066.16;;;10.85
11926;BMP180;6022;48.768;18.608;2022-10-31T09:23:20;99068.88;;;10.82
11926;BMP180;6022;48.768;18.608;2022-10-31T09:25:51;99062.50;;;10.75
11926;BMP180;6022;48.768;18.608;2022-10-31T09:28:21;99062.31;;;10.63
11926;BMP180;6022;48.768;18.608;2022-10-31T09:30:52;99059.56;;;10.67
11926;BMP180;6022;48.768;18.608;2022-10-31T09:33:20;99058.56;;;10.70
11926;BMP180;6022;48.768;18.608;2022-10-31T09:35:48;99062.00;;;10.84
11926;BMP180;6022;48.768;18.608;2022-10-31T09:38:19;99066.47;;;10.94
11926;BMP180;6022;48.768;18.608;2022-10-31T09:50:02;99062.47;;;11.35
11926;BMP180;6022;48.768;18.608;2022-10-31T09:52:39;99062.41;;;11.36
11926;BMP180;6022;48.768;18.608;2022-10-31T09:55:30;99063.56;;;11.31
11926;BMP180;6022;48.768;18.608;2022-10-31T09:58:01;99066.34;;;11.27
11926;BMP180;6022;48.768;18.608;2022-10-31T10:00:29;99058.94;;;11.37
11926;BMP180;6022;48.768;18.608;2022-10-31T10:03:12;99053.63;;;11.42
11926;BMP180;6022;48.768;18.608;2022-10-31T10:05:57;99056.03;;;11.43
11926;BMP180;6022;48.768;18.608;2022-10-31T10:08:31;99058.31;;;11.49
11926;BMP180;6022;48.768;18.608;2022-10-31T10:14:51;99057.22;;;11.53
11926;BMP180;6022;48.768;18.608;2022-10-31T10:18:32;99048.97;;;11.64
11926;BMP180;6022;48.768;18.608;2022-10-31T10:30:32;99046.91;;;11.70
11926;BMP180;6022;48.768;18.608;2022-10-31T10:33:14;99038.00;;;11.77
11926;BMP180;6022;48.768;18.608;2022-10-31T10:35:58;99042.91;;;11.80
11926;BMP180;6022;48.768;18.608;2022-10-31T10:41:21;99036.00;;;11.82
11926;BMP180;6022;48.768;18.608;2022-10-31T10:43:52;99037.75;;;11.81
11926;BMP180;6022;48.768;18.608;2022-10-31T10:46:43;99032.00;;;11.78
11926;BMP180;6022;48.768;18.608;2022-10-31T10:49:49;99039.44;;;11.81
11926;BMP180;6022;48.768;18.608;2022-10-31T10:58:07;99034.38;;;11.95
11926;BMP180;6022;48.768;18.608;2022-10-31T11:00:40;99027.47;;;11.97
11926;BMP180;6022;48.768;18.608;2022-10-31T11:03:09;99023.28;;;11.96
11926;BMP180;6022;48.768;18.608;2022-10-31T11:08:29;99025.75;;;11.97
11926;BMP180;6022;48.768;18.608;2022-10-31T11:11:11;99029.00;;;11.99
11926;BMP180;6022;48.768;18.608;2022-10-31T11:13:49;99030.22;;;12.07
11926;BMP180;6022;48.768;18.608;2022-10-31T11:16:37;99027.66;;;12.07
11926;BMP180;6022;48.768;18.608;2022-10-31T11:19:14;99024.28;;;12.07
11926;BMP180;6022;48.768;18.608;2022-10-31T11:21:43;99021.22;;;12.02
11926;BMP180;6022;48.768;18.608;2022-10-31T11:24:23;99021.75;;;12.07
11926;BMP180;6022;48.768;18.608;2022-10-31T11:27:24;99017.38;;;12.23
11926;BMP180;6022;48.768;18.608;2022-10-31T11:29:52;99022.56;;;12.21
11926;BMP180;6022;48.768;18.608;2022-10-31T11:32:27;99021.75;;;12.21
11926;BMP180;6022;48.768;18.608;2022-10-31T11:35:17;99012.38;;;12.21
11926;BMP180;6022;48.768;18.608;2022-10-31T11:37:48;99011.38;;;12.24
11926;BMP180;6022;48.768;18.608;2022-10-31T11:40:22;99010.38;;;12.26
11926;BMP180;6022;48.768;18.608;2022-10-31T11:42:55;99014.56;;;12.27
11926;BMP180;6022;48.768;18.608;2022-10-31T11:47:54;99002.22;;;12.21
11926;BMP180;6022;48.768;18.608;2022-10-31T11:50:39;99004.59;;;12.24
11926;BMP180;6022;48.768;18.608;2022-10-31T11:53:18;99007.84;;;12.26
11926;BMP180;6022;48.768;18.608;2022-10-31T11:55:47;99012.94;;;12.26
11926;BMP180;6022;48.768;18.608;2022-10-31T11:58:27;99010.19;;;12.29
11926;BMP180;6022;48.768;18.608;2022-10-31T12:00:57;99007.84;;;12.26
11926;BMP180;6022;48.768;18.608;2022-10-31T12:08:38;99020.41;;;12.15
11926;BMP180;6022;48.768;18.608;2022-10-31T12:17:05;99012.03;;;12.13
11926;BMP180;6022;48.768;18.608;2022-10-31T12:20:11;99008.78;;;12.11
11926;BMP180;6022;48.768;18.608;2022-10-31T12:39:29;99020.56;;;11.99
11926;BMP180;6022;48.768;18.608;2022-10-31T12:45:00;99009.41;;;12.01
11926;BMP180;6022;48.768;18.608;2022-10-31T12:50:57;99010.59;;;12.09
11926;BMP180;6022;48.768;18.608;2022-10-31T12:59:44;99009.88;;;12.07
11926;BMP180;6022;48.768;18.608;2022-10-31T13:04:55;99003.84;;;12.08
11926;BMP180;6022;48.768;18.608;2022-10-31T13:10:47;99008.78;;;12.11
11926;BMP180;6022;48.768;18.608;2022-10-31T13:16:17;99001.88;;;12.13
11926;BMP180;6022;48.768;18.608;2022-10-31T13:21:41;99006.22;;;12.11
11926;BMP180;6022;48.768;18.608;2022-10-31T13:24:21;99003.84;;;12.08
11926;BMP180;6022;48.768;18.608;2022-10-31T13:26:54;98996.94;;;12.10
11926;BMP180;6022;48.768;18.608;2022-10-31T13:29:34;99010.25;;;12.02
11926;BMP180;6022;48.768;18.608;2022-10-31T13:32:07;99005.03;;;12.03
11926;BMP180;6022;48.768;18.608;2022-10-31T13:34:47;99014.41;;;12.03
11926;BMP180;6022;48.768;18.608;2022-10-31T13:37:36;99003.41;;;12.02
11926;BMP180;6022;48.768;18.608;2022-10-31T13:45:53;99012.03;;;12.00
11926;BMP180;6022;48.768;18.608;2022-10-31T13:51:07;99013.84;;;11.98
11926;BMP180;6022;48.768;18.608;2022-10-31T13:56:31;99005.84;;;11.90
11926;BMP180;6022;48.768;18.608;2022-10-31T13:59:25;99004.31;;;11.87
11926;BMP180;6022;48.768;18.608;2022-10-31T14:02:00;98996.06;;;11.84
11926;BMP180;6022;48.768;18.608;2022-10-31T14:07:13;99003.13;;;11.79
11926;BMP180;6022;48.768;18.608;2022-10-31T14:09:52;98992.59;;;11.71
11926;BMP180;6022;48.768;18.608;2022-10-31T14:12:44;98998.06;;;11.65
11926;BMP180;6022;48.768;18.608;2022-10-31T14:15:22;98999.13;;;11.61
11926;BMP180;6022;48.768;18.608;2022-10-31T14:18:21;98989.97;;;11.59
11926;BMP180;6022;48.768;18.608;2022-10-31T14:20:48;98996.59;;;11.61
11926;BMP180;6022;48.768;18.608;2022-10-31T14:34:30;98992.25;;;11.49
11926;BMP180;6022;48.768;18.608;2022-10-31T14:40:59;99002.81;;;11.42
11926;BMP180;6022;48.768;18.608;2022-10-31T14:52:27;98996.16;;;11.26
11926;BMP180;6022;48.768;18.608;2022-10-31T14:54:57;98998.53;;;11.29
11926;BMP180;6022;48.768;18.608;2022-10-31T14:57:34;98997.03;;;11.25
11926;BMP180;6022;48.768;18.608;2022-10-31T15:00:07;98991.22;;;11.23
11926;BMP180;6022;48.768;18.608;2022-10-31T15:05:34;98993.75;;;11.23
11926;BMP180;6022;48.768;18.608;2022-10-31T15:11:27;98997.88;;;11.25
11926;BMP180;6022;48.768;18.608;2022-10-31T15:13:59;98998.59;;;11.27
11926;BMP180;6022;48.768;18.608;2022-10-31T15:16:34;98997.69;;;11.28
11926;BMP180;6022;48.768;18.608;2022-10-31T15:19:10;98988.69;;;11.23
11926;BMP180;6022;48.768;18.608;2022-10-31T15:21:45;98984.53;;;11.22
11926;BMP180;6022;48.768;18.608;2022-10-31T15:24:15;98987.06;;;11.22
11926;BMP180;6022;48.768;18.608;2022-10-31T15:26:51;98985.41;;;11.21
11926;BMP180;6022;48.768;18.608;2022-10-31T15:29:23;98982.16;;;11.19
11926;BMP180;6022;48.768;18.608;2022-10-31T15:32:01;98988.88;;;11.20
11926;BMP180;6022;48.768;18.608;2022-10-31T15:34:42;98984.59;;;11.20
11926;BMP180;6022;48.768;18.608;2022-10-31T15:37:16;98982.88;;;11.21
11926;BMP180;6022;48.768;18.608;2022-10-31T15:39:47;98986.25;;;11.21
11926;BMP180;6022;48.768;18.608;2022-10-31T15:42:35;98985.41;;;11.21
11926;BMP180;6022;48.768;18.608;2022-10-31T15:47:44;98993.75;;;11.23
11926;BMP180;6022;48.768;18.608;2022-10-31T15:50:33;98991.41;;;11.20
11926;BMP180;6022;48.768;18.608;2022-10-31T15:53:05;98986.56;;;11.15
11926;BMP180;6022;48.768;18.608;2022-10-31T15:55:57;98987.50;;;11.14
11926;BMP180;6022;48.768;18.608;2022-10-31T15:58:26;98993.59;;;11.12
11926;BMP180;6022;48.768;18.608;2022-10-31T16:01:05;98996.28;;;11.09
11926;BMP180;6022;48.768;18.608;2022-10-31T16:03:33;98996.94;;;11.12
11926;BMP180;6022;48.768;18.608;2022-10-31T16:06:04;98998.66;;;11.12
11926;BMP180;6022;48.768;18.608;2022-10-31T16:08:36;98994.63;;;11.08
11926;BMP180;6022;48.768;18.608;2022-10-31T16:16:48;98998.25;;;11.04
11926;BMP180;6022;48.768;18.608;2022-10-31T16:19:34;98993.91;;;11.06
11926;BMP180;6022;48.768;18.608;2022-10-31T16:22:09;98999.69;;;11.08
11926;BMP180;6022;48.768;18.608;2022-10-31T16:24:50;99005.63;;;11.08
11926;BMP180;6022;48.768;18.608;2022-10-31T16:27:24;99009.84;;;11.08
11926;BMP180;6022;48.768;18.608;2022-10-31T16:29:57;99004.78;;;11.08
11926;BMP180;6022;48.768;18.608;2022-10-31T16:32:36;99000.69;;;11.05
11926;BMP180;6022;48.768;18.608;2022-10-31T16:37:40;99020.03;;;11.08
11926;BMP180;6022;48.768;18.608;2022-10-31T16:40:14;99006.78;;;11.03
11926;BMP180;6022;48.768;18.608;2022-10-31T16:42:42;99011.84;;;11.03
11926;BMP180;6022;48.768;18.608;2022-10-31T16:45:23;99015.72;;;10.94
11926;BMP180;6022;48.768;18.608;2022-10-31T16:47:52;99017.44;;;10.94
11926;BMP180;6022;48.768;18.608;2022-10-31T16:50:24;99025.06;;;10.94
11926;BMP180;6022;48.768;18.608;2022-10-31T16:52:52;99025.06;;;10.94
11926;BMP180;6022;48.768;18.608;2022-10-31T16:55:51;99022.59;;;10.93
11926;BMP180;6022;48.768;18.608;2022-10-31T16:58:34;99030.88;;;10.96
11926;BMP180;6022;48.768;18.608;2022-10-31T17:01:06;99031.03;;;10.93
11926;BMP180;6022;48.768;18.608;2022-10-31T17:03:33;99028.75;;;10.89
11926;BMP180;6022;48.768;18.608;2022-10-31T17:06:00;99034.63;;;10.89
11926;BMP180;6022;48.768;18.608;2022-10-31T17:08:28;99029.56;;;10.89
11926;BMP180;6022;48.768;18.608;2022-10-31T17:10:58;99033.75;;;10.90
11926;BMP180;6022;48.768;18.608;2022-10-31T17:13:29;99038.75;;;10.92
11926;BMP180;6022;48.768;18.608;2022-10-31T17:16:01;99036.88;;;10.95
11926;BMP180;6022;48.768;18.608;2022-10-31T17:18:28;99037.91;;;10.91
11926;BMP180;6022;48.768;18.608;2022-10-31T17:21:00;99033.91;;;10.87
11926;BMP180;6022;48.768;18.608;2022-10-31T17:23:28;99040.56;;;10.90
11926;BMP180;6022;48.768;18.608;2022-10-31T17:25:56;99032.81;;;10.91
11926;BMP180;6022;48.768;18.608;2022-10-31T17:28:24;99030.22;;;10.93
11926;BMP180;6022;48.768;18.608;2022-10-31T17:30:54;99036.13;;;10.93
11926;BMP180;6022;48.768;18.608;2022-10-31T17:33:24;99036.13;;;10.93
11926;BMP180;6022;48.768;18.608;2022-10-31T17:35:51;99045.44;;;10.93
11926;BMP180;6022;48.768;18.608;2022-10-31T17:38:19;99045.69;;;10.88
11926;BMP180;6022;48.768;18.608;2022-10-31T17:40:46;99049.06;;;10.89
11926;BMP180;6022;48.768;18.608;2022-10-31T17:43:19;99043.91;;;10.90
11926;BMP180;6022;48.768;18.608;2022-10-31T17:45:48;99040.44;;;10.91